createdAt,value
2023-02-14T00:01:45.456Z,11.35
2023-02-14T00:04:14.168Z,11.85
2023-02-14T00:06:43.008Z,10.65
2023-02-14T00:09:13.885Z,11.98
2023-02-14T00:11:46.693Z,11.45
2023-02-14T00:14:34.657Z,12.10
2023-02-14T00:17:02.962Z,12.13
2023-02-14T00:19:31.757Z,12.13
2023-02-14T00:22:00.233Z,11.23
2023-02-14T00:24:28.708Z,11.27
2023-02-14T00:26:57.254Z,11.70
2023-02-14T00:29:28.761Z,12.57
2023-02-14T00:31:57.479Z,10.73
2023-02-14T00:34:26.765Z,11.75
2023-02-14T00:36:55.037Z,11.80
2023-02-14T00:39:23.482Z,12.07
2023-02-14T00:41:51.838Z,11.52
2023-02-14T00:44:35.509Z,11.63
2023-02-14T00:47:05.496Z,11.88
2023-02-14T00:49:34.259Z,12.50
2023-02-14T00:52:02.886Z,12.60
2023-02-14T00:54:32.721Z,12.60
2023-02-14T00:57:01.503Z,12.60
2023-02-14T00:59:30.745Z,13.32
2023-02-14T01:02:01.287Z,12.45
2023-02-14T01:04:30.724Z,12.95
2023-02-14T01:06:59.202Z,12.95
2023-02-14T01:09:28.229Z,13.43
2023-02-14T01:11:57.136Z,13.75
2023-02-14T01:14:25.888Z,13.20
2023-02-14T01:16:54.493Z,13.55
2023-02-14T01:19:27.629Z,12.90
2023-02-14T01:21:56.207Z,12.80
2023-02-14T01:24:32.853Z,13.07
2023-02-14T01:27:02.597Z,13.73
2023-02-14T01:29:30.986Z,14.77
2023-02-14T01:32:05.197Z,13.50
2023-02-14T01:34:35.279Z,13.10
2023-02-14T01:37:04.239Z,13.52
2023-02-14T01:39:33.115Z,13.75
2023-02-14T01:42:02.783Z,13.00
2023-02-14T01:44:58.780Z,12.55
2023-02-14T01:47:30.040Z,13.23
2023-02-14T01:50:04.167Z,12.63
2023-02-14T01:52:38.622Z,13.05
2023-02-14T01:55:15.027Z,13.35
2023-02-14T01:57:50.660Z,13.60
2023-02-14T02:00:38.935Z,13.23
2023-02-14T02:03:09.498Z,13.35
2023-02-14T02:05:42.331Z,12.85
2023-02-14T02:08:12.016Z,12.77
2023-02-14T02:10:40.446Z,14.27
2023-02-14T02:13:15.922Z,13.30
2023-02-14T02:15:57.359Z,13.05
2023-02-14T02:18:36.399Z,12.75
2023-02-14T02:21:37.372Z,13.35
2023-02-14T02:24:18.743Z,13.40
2023-02-14T02:27:08.726Z,11.93
2023-02-14T02:30:14.089Z,12.45
2023-02-14T02:33:18.468Z,13.65
2023-02-14T02:36:12.879Z,11.95
2023-02-14T02:38:55.639Z,13.40
2023-02-14T02:41:35.642Z,13.45
2023-02-14T02:44:12.567Z,13.38
2023-02-14T02:46:49.239Z,13.10
2023-02-14T02:49:50.817Z,14.15
2023-02-14T02:52:42.790Z,13.57
2023-02-14T02:55:18.770Z,13.18
2023-02-14T02:57:48.740Z,12.98
2023-02-14T03:00:21.688Z,14.13
2023-02-14T03:03:11.182Z,14.07
2023-02-14T03:05:40.428Z,14.43
2023-02-14T03:08:10.474Z,13.65
2023-02-14T03:11:05.800Z,13.52
2023-02-14T03:13:56.693Z,13.80
2023-02-14T03:16:36.456Z,14.13
2023-02-14T03:19:32.983Z,14.25
2023-02-14T03:22:08.809Z,13.60
2023-02-14T03:24:53.124Z,14.40
2023-02-14T03:27:25.978Z,14.25
2023-02-14T03:30:03.029Z,14.82
2023-02-14T03:32:40.120Z,15.10
2023-02-14T03:35:16.251Z,14.68
2023-02-14T03:37:50.696Z,15.23
2023-02-14T03:40:24.482Z,14.20
2023-02-14T03:42:56.782Z,13.52
2023-02-14T03:45:31.899Z,13.02
2023-02-14T03:48:05.164Z,12.93
2023-02-14T03:50:35.796Z,12.80
2023-02-14T03:53:06.611Z,12.88
2023-02-14T03:55:41.938Z,13.27
2023-02-14T03:58:21.839Z,12.77
2023-02-14T04:00:54.037Z,13.30
2023-02-14T04:03:25.246Z,12.75
2023-02-14T04:05:54.091Z,13.27
2023-02-14T04:08:25.072Z,13.23
2023-02-14T04:11:15.140Z,13.13
2023-02-14T04:13:43.691Z,13.65
2023-02-14T04:16:12.295Z,13.75
2023-02-14T04:18:58.492Z,13.40
2023-02-14T04:21:27.211Z,13.43
2023-02-14T04:23:58.083Z,13.98
2023-02-14T04:26:28.047Z,13.25
2023-02-14T04:28:56.553Z,13.50
2023-02-14T04:31:28.152Z,13.30
2023-02-14T04:33:56.796Z,13.60
2023-02-14T04:36:25.246Z,13.85
2023-02-14T04:38:53.766Z,14.32
2023-02-14T04:41:22.538Z,14.25
2023-02-14T04:43:52.547Z,14.50
2023-02-14T04:46:21.159Z,14.43
2023-02-14T04:48:56.020Z,14.05
2023-02-14T04:51:27.571Z,15.05
2023-02-14T04:53:56.252Z,14.98
2023-02-14T04:56:26.063Z,15.50
2023-02-14T04:58:58.292Z,15.98
2023-02-14T05:01:26.801Z,15.68
2023-02-14T05:03:55.364Z,15.70
2023-02-14T05:06:24.168Z,15.00
2023-02-14T05:08:52.918Z,14.05
2023-02-14T05:11:21.346Z,14.38
2023-02-14T05:13:49.898Z,13.73
2023-02-14T05:16:19.799Z,14.90
2023-02-14T05:18:48.652Z,13.85
2023-02-14T05:21:17.195Z,13.57
2023-02-14T05:23:45.618Z,13.50
2023-02-14T05:26:14.340Z,14.07
2023-02-14T05:28:42.728Z,15.05
2023-02-14T05:31:11.572Z,14.20
2023-02-14T05:33:41.506Z,14.60
2023-02-14T05:36:10.161Z,14.00
2023-02-14T05:38:38.914Z,13.38
2023-02-14T05:41:10.907Z,13.80
2023-02-14T05:43:39.469Z,14.60
2023-02-14T05:46:08.188Z,14.25
2023-02-14T05:48:37.010Z,14.70
2023-02-14T05:51:08.827Z,17.98
2023-02-14T05:53:37.982Z,17.27
2023-02-14T05:56:07.110Z,19.92
2023-02-14T05:58:35.814Z,20.05
2023-02-14T06:01:04.294Z,21.88
2023-02-14T06:03:32.968Z,22.23
2023-02-14T06:06:01.522Z,22.92
2023-02-14T06:08:31.397Z,22.25
2023-02-14T06:11:02.455Z,21.55
2023-02-14T06:13:31.500Z,21.27
2023-02-14T06:16:00.417Z,20.80
2023-02-14T06:18:29.742Z,20.77
2023-02-14T06:20:58.806Z,19.88
2023-02-14T06:23:27.881Z,20.40
2023-02-14T06:25:57.817Z,19.40
2023-02-14T06:28:26.409Z,17.20
2023-02-14T06:30:54.949Z,17.90
2023-02-14T06:33:27.828Z,17.60
2023-02-14T06:35:56.749Z,17.15
2023-02-14T06:38:25.504Z,16.92
2023-02-14T06:40:54.368Z,16.63
2023-02-14T06:43:24.709Z,16.42
2023-02-14T06:45:53.661Z,14.65
2023-02-14T06:48:21.974Z,15.73
2023-02-14T06:50:50.467Z,15.25
2023-02-14T06:53:18.750Z,14.65
2023-02-14T06:55:47.108Z,15.20
2023-02-14T06:58:15.428Z,15.60
2023-02-14T07:00:44.975Z,15.65
2023-02-14T07:03:13.265Z,15.10
2023-02-14T07:05:41.552Z,15.57
2023-02-14T07:08:10.324Z,16.23
2023-02-14T07:10:38.788Z,15.43
2023-02-14T07:13:07.388Z,15.20
2023-02-14T07:15:35.852Z,14.95
2023-02-14T07:18:06.582Z,16.63
2023-02-14T07:20:34.820Z,18.85
2023-02-14T07:23:03.086Z,16.52
2023-02-14T07:25:31.487Z,16.95
2023-02-14T07:27:59.873Z,17.85
2023-02-14T07:30:28.186Z,17.38
2023-02-14T07:32:57.599Z,18.15
2023-02-14T07:35:27.212Z,19.20
2023-02-14T07:37:55.521Z,16.90
2023-02-14T07:40:25.111Z,17.00
2023-02-14T07:42:58.560Z,18.55
2023-02-14T07:45:27.259Z,17.23
2023-02-14T07:47:58.969Z,17.38
2023-02-14T07:50:29.525Z,17.92
2023-02-14T07:52:58.123Z,20.15
2023-02-14T07:55:26.304Z,20.02
2023-02-14T07:57:54.671Z,17.20
2023-02-14T08:00:23.521Z,16.98
2023-02-14T08:02:51.825Z,19.40
2023-02-14T08:05:20.290Z,19.48
2023-02-14T08:07:50.489Z,19.42
2023-02-14T08:10:18.881Z,18.60
2023-02-14T08:13:02.191Z,18.95
2023-02-14T08:15:49.846Z,18.27
2023-02-14T08:18:18.694Z,17.42
2023-02-14T08:20:48.651Z,18.23
2023-02-14T08:23:19.596Z,17.45
2023-02-14T08:25:49.117Z,18.65
2023-02-14T08:28:18.059Z,18.65
2023-02-14T08:30:46.632Z,18.23
2023-02-14T08:33:14.917Z,18.98
2023-02-14T08:35:43.221Z,17.75
2023-02-14T08:38:11.805Z,18.48
2023-02-14T08:40:41.517Z,17.50
2023-02-14T08:43:10.347Z,17.58
2023-02-14T08:45:39.662Z,18.50
2023-02-14T08:48:10.202Z,18.17
2023-02-14T08:50:39.601Z,18.27
2023-02-14T08:53:09.542Z,17.65
2023-02-14T08:55:38.324Z,18.98
2023-02-14T08:58:08.511Z,18.10
2023-02-14T09:00:36.934Z,17.90
2023-02-14T09:03:05.401Z,19.10
2023-02-14T09:05:35.067Z,18.23
2023-02-14T09:08:03.821Z,17.70
2023-02-14T09:10:32.177Z,17.70
2023-02-14T09:13:00.479Z,18.08
2023-02-14T09:15:30.055Z,17.40
2023-02-14T09:17:58.405Z,16.92
2023-02-14T09:20:26.712Z,16.50
2023-02-14T09:22:57.994Z,17.00
2023-02-14T09:25:26.239Z,17.10
2023-02-14T09:27:54.510Z,16.90
2023-02-14T09:30:22.837Z,16.45
2023-02-14T09:32:54.261Z,16.98
2023-02-14T09:35:22.807Z,18.42
2023-02-14T09:38:08.324Z,17.30
2023-02-14T09:40:36.674Z,17.90
2023-02-14T09:43:12.777Z,17.75
2023-02-14T09:45:41.604Z,16.90
2023-02-14T09:48:18.712Z,17.33
2023-02-14T09:50:50.937Z,17.77
2023-02-14T09:53:26.534Z,18.08
2023-02-14T09:56:03.683Z,18.95
2023-02-14T09:58:36.808Z,18.33
2023-02-14T10:01:13.796Z,17.02
2023-02-14T10:04:07.410Z,18.42
2023-02-14T10:06:46.491Z,17.77
2023-02-14T10:09:26.368Z,18.77
2023-02-14T10:11:55.772Z,17.20
2023-02-14T10:14:26.857Z,17.45
2023-02-14T10:17:00.327Z,18.95
2023-02-14T10:19:35.457Z,17.60
2023-02-14T10:22:06.163Z,17.50
2023-02-14T10:24:39.468Z,17.45
2023-02-14T10:27:28.107Z,17.40
2023-02-14T10:29:56.457Z,16.48
2023-02-14T10:32:31.142Z,16.77
2023-02-14T10:35:05.296Z,15.85
2023-02-14T10:37:45.921Z,16.58
2023-02-14T10:40:35.087Z,15.65
2023-02-14T10:43:15.140Z,15.88
2023-02-14T10:45:53.279Z,16.48
2023-02-14T10:48:32.054Z,15.45
2023-02-14T10:51:12.273Z,15.52
2023-02-14T10:53:48.672Z,15.93
2023-02-14T10:56:21.390Z,14.77
2023-02-14T10:58:52.181Z,14.75
2023-02-14T11:01:21.045Z,14.55
2023-02-14T11:03:55.779Z,15.20
2023-02-14T11:06:25.751Z,15.32
2023-02-14T11:08:56.202Z,12.95
2023-02-14T11:11:31.044Z,13.68
2023-02-14T11:13:59.274Z,15.00
2023-02-14T11:16:33.227Z,15.35
2023-02-14T11:19:11.044Z,14.77
2023-02-14T11:21:42.354Z,13.93
2023-02-14T11:24:19.924Z,15.00
2023-02-14T11:26:52.870Z,15.18
2023-02-14T11:29:28.522Z,15.77
2023-02-14T11:31:57.918Z,14.93
2023-02-14T11:34:36.624Z,13.40
2023-02-14T11:37:26.835Z,14.00
2023-02-14T11:39:57.084Z,14.93
2023-02-14T11:42:42.826Z,13.30
2023-02-14T11:45:30.479Z,13.88
2023-02-14T11:48:19.668Z,13.75
2023-02-14T11:50:56.777Z,13.90
2023-02-14T11:53:30.632Z,13.85
2023-02-14T11:56:09.764Z,13.43
2023-02-14T11:58:42.455Z,14.25
2023-02-14T12:01:15.457Z,14.85
2023-02-14T12:03:48.271Z,13.40
2023-02-14T12:06:25.834Z,14.43
2023-02-14T12:09:12.296Z,14.75
2023-02-14T12:11:41.093Z,14.68
2023-02-14T12:14:21.930Z,14.27
2023-02-14T12:16:57.410Z,15.50
2023-02-14T12:19:35.891Z,13.27
2023-02-14T12:22:06.442Z,13.88
2023-02-14T12:24:39.102Z,13.25
2023-02-14T12:27:21.330Z,12.95
2023-02-14T12:29:53.550Z,14.15
2023-02-14T12:32:24.323Z,14.80
2023-02-14T12:34:57.170Z,15.40
2023-02-14T12:37:34.958Z,14.73
2023-02-14T12:40:15.084Z,14.70
2023-02-14T12:42:57.110Z,15.43
2023-02-14T12:45:37.115Z,15.32
2023-02-14T12:48:17.975Z,14.35
2023-02-14T12:50:52.842Z,14.02
2023-02-14T12:53:49.314Z,14.98
2023-02-14T12:56:40.510Z,13.95
2023-02-14T13:00:20.454Z,14.55
2023-02-14T13:14:33.134Z,17.27
2023-02-14T13:17:09.080Z,14.70
2023-02-14T13:19:48.946Z,15.20
2023-02-14T13:23:56.877Z,14.30
2023-02-14T13:26:31.334Z,14.77
2023-02-14T13:29:06.063Z,14.80
2023-02-14T13:31:35.007Z,15.40
2023-02-14T13:34:08.029Z,14.30
2023-02-14T13:36:38.097Z,14.50
2023-02-14T13:39:07.967Z,13.50
2023-02-14T13:41:41.720Z,14.52
2023-02-14T13:44:11.318Z,14.98
2023-02-14T13:47:03.677Z,15.45
2023-02-14T13:49:34.592Z,15.02
2023-02-14T13:52:04.615Z,16.30
2023-02-14T13:54:37.093Z,15.50
2023-02-14T13:57:28.041Z,16.50
2023-02-14T14:00:23.831Z,15.63
2023-02-14T14:02:53.056Z,16.17
2023-02-14T14:05:51.060Z,16.98
2023-02-14T14:08:54.888Z,16.20
2023-02-14T14:11:50.765Z,16.33
2023-02-14T14:14:36.305Z,16.38
2023-02-14T14:17:21.794Z,16.13
2023-02-14T14:19:50.345Z,16.10
2023-02-14T14:22:19.879Z,16.35
2023-02-14T14:25:02.665Z,16.13
2023-02-14T14:27:34.663Z,16.10
2023-02-14T14:30:06.040Z,14.98
2023-02-14T14:32:37.920Z,14.23
2023-02-14T14:35:09.216Z,14.20
2023-02-14T14:37:46.791Z,14.10
2023-02-14T14:40:24.849Z,14.70
2023-02-14T14:42:54.333Z,14.88
2023-02-14T14:45:24.499Z,14.35
2023-02-14T14:47:58.795Z,15.18
2023-02-14T14:50:29.496Z,13.05
2023-02-14T14:53:03.760Z,14.25
2023-02-14T14:55:34.468Z,13.13
2023-02-14T14:58:04.825Z,13.63
2023-02-14T15:00:35.448Z,14.63
2023-02-14T15:03:07.885Z,13.20
2023-02-14T15:05:39.156Z,13.32
2023-02-14T15:08:23.600Z,13.95
2023-02-14T15:10:56.019Z,13.15
2023-02-14T15:13:51.025Z,13.48
2023-02-14T15:16:26.055Z,13.32
2023-02-14T15:18:59.278Z,13.05
2023-02-14T15:21:28.719Z,13.35
2023-02-14T15:23:57.219Z,13.43
2023-02-14T15:26:29.490Z,14.60
2023-02-14T15:29:00.203Z,14.25
2023-02-14T15:31:34.125Z,14.05
2023-02-14T15:34:04.838Z,15.35
2023-02-14T15:36:35.428Z,14.25
2023-02-14T15:39:07.485Z,15.80
2023-02-14T15:41:35.912Z,17.73
2023-02-14T15:44:04.595Z,17.50
2023-02-14T15:46:36.447Z,15.13
2023-02-14T15:49:11.532Z,14.77
2023-02-14T15:51:40.653Z,14.82
2023-02-14T15:54:20.184Z,15.73
2023-02-14T15:56:52.607Z,15.80
2023-02-14T15:59:23.440Z,17.00
2023-02-14T16:01:54.377Z,16.08
2023-02-14T16:04:27.167Z,16.48
2023-02-14T16:07:08.442Z,16.02
2023-02-14T16:09:37.716Z,16.17
2023-02-14T16:12:32.633Z,16.08
2023-02-14T16:15:12.068Z,15.88
2023-02-14T16:17:41.950Z,16.13
2023-02-14T16:20:29.737Z,17.13
2023-02-14T16:23:20.714Z,16.20
2023-02-14T16:25:50.085Z,16.38
2023-02-14T16:28:18.961Z,18.63
2023-02-14T16:30:48.991Z,18.10
2023-02-14T16:33:21.011Z,18.33
2023-02-14T16:36:01.400Z,17.80
2023-02-14T16:38:31.131Z,18.23
2023-02-14T16:40:59.862Z,17.15
2023-02-14T16:43:28.333Z,15.88
2023-02-14T16:45:56.644Z,15.93
2023-02-14T16:48:24.859Z,15.10
2023-02-14T16:50:54.532Z,15.85
2023-02-14T16:53:27.001Z,15.68
2023-02-14T16:55:58.153Z,16.30
2023-02-14T16:58:33.201Z,15.07
2023-02-14T17:01:01.805Z,15.05
2023-02-14T17:03:30.245Z,15.20
2023-02-14T17:06:02.747Z,15.05
2023-02-14T17:08:32.143Z,15.70
2023-02-14T17:11:02.240Z,15.55
2023-02-14T17:13:34.808Z,15.13
2023-02-14T17:16:04.469Z,14.77
2023-02-14T17:18:34.269Z,15.25
2023-02-14T17:21:09.283Z,15.43
2023-02-14T17:23:38.639Z,14.82
2023-02-14T17:26:07.169Z,15.02
2023-02-14T17:28:36.787Z,15.35
2023-02-14T17:31:05.727Z,15.25
2023-02-14T17:33:34.695Z,17.10
2023-02-14T17:36:11.523Z,16.55
2023-02-14T17:38:43.340Z,15.32
2023-02-14T17:41:13.710Z,16.05
2023-02-14T17:43:42.383Z,16.25
2023-02-14T17:46:11.116Z,15.90
2023-02-14T17:48:39.403Z,16.42
2023-02-14T17:51:11.190Z,17.90
2023-02-14T17:53:41.463Z,17.38
2023-02-14T17:56:11.728Z,17.58
2023-02-14T17:58:40.608Z,16.42
2023-02-14T18:01:11.268Z,17.73
2023-02-14T18:03:40.472Z,16.30
2023-02-14T18:06:12.347Z,17.17
2023-02-14T18:08:43.255Z,16.92
2023-02-14T18:11:13.929Z,17.73
2023-02-14T18:13:42.689Z,17.10
2023-02-14T18:16:13.209Z,16.90
2023-02-14T18:18:42.208Z,15.93
2023-02-14T18:21:14.244Z,17.50
2023-02-14T18:23:43.376Z,16.25
2023-02-14T18:26:14.228Z,16.48
2023-02-14T18:28:42.631Z,16.83
2023-02-14T18:31:13.105Z,17.30
2023-02-14T18:33:42.077Z,17.33
2023-02-14T18:36:13.543Z,16.33
2023-02-14T18:38:43.662Z,18.33
2023-02-14T18:41:16.982Z,17.08
2023-02-14T18:43:45.658Z,16.92
2023-02-14T18:46:16.205Z,17.02
2023-02-14T18:48:45.088Z,17.58
2023-02-14T18:51:16.436Z,17.90
2023-02-14T18:53:46.096Z,16.75
2023-02-14T18:56:16.128Z,18.38
2023-02-14T18:58:47.524Z,18.52
2023-02-14T19:01:17.919Z,17.83
2023-02-14T19:03:46.563Z,19.05
2023-02-14T19:06:16.595Z,18.55
2023-02-14T19:08:45.382Z,18.38
2023-02-14T19:11:15.835Z,18.08
2023-02-14T19:13:45.603Z,17.77
2023-02-14T19:16:15.188Z,17.52
2023-02-14T19:18:44.117Z,18.05
2023-02-14T19:21:13.326Z,19.65
2023-02-14T19:23:43.193Z,16.85
2023-02-14T19:26:13.148Z,19.25
2023-02-14T19:28:41.995Z,19.08
2023-02-14T19:31:10.767Z,17.33
2023-02-14T19:33:40.431Z,17.77
2023-02-14T19:36:12.819Z,18.65
2023-02-14T19:38:43.956Z,18.05
2023-02-14T19:41:16.560Z,17.90
2023-02-14T19:43:45.788Z,17.85
2023-02-14T19:46:14.520Z,17.52
2023-02-14T19:48:44.526Z,19.40
2023-02-14T19:51:16.687Z,18.45
2023-02-14T19:53:46.639Z,20.35
2023-02-14T19:56:20.578Z,21.17
2023-02-14T19:58:49.626Z,21.83
2023-02-14T20:01:25.287Z,22.30
2023-02-14T20:03:54.127Z,21.65
2023-02-14T20:06:22.754Z,22.92
2023-02-14T20:08:52.982Z,23.27
2023-02-14T20:11:30.142Z,23.08
2023-02-14T20:13:59.407Z,22.75
2023-02-14T20:16:29.526Z,22.00
2023-02-14T20:18:58.672Z,22.65
2023-02-14T20:21:28.240Z,24.38
2023-02-14T20:24:00.797Z,22.30
2023-02-14T20:26:29.858Z,23.95
2023-02-14T20:29:00.036Z,23.70
2023-02-14T20:31:28.438Z,23.27
2023-02-14T20:33:57.281Z,22.98
2023-02-14T20:36:26.141Z,21.95
2023-02-14T20:38:56.352Z,23.27
2023-02-14T20:41:27.573Z,21.88
2023-02-14T20:43:57.053Z,20.58
2023-02-14T20:46:25.291Z,22.52
2023-02-14T20:48:54.125Z,21.85
2023-02-14T20:51:23.244Z,19.70
2023-02-14T20:53:52.509Z,20.65
2023-02-14T20:56:22.759Z,21.13
2023-02-14T20:58:53.211Z,22.05
2023-02-14T21:01:23.545Z,20.50
2023-02-14T21:03:53.980Z,22.25
2023-02-14T21:06:25.329Z,21.17
2023-02-14T21:08:53.938Z,19.83
2023-02-14T21:11:24.190Z,20.38
2023-02-14T21:13:59.211Z,20.33
2023-02-14T21:16:29.061Z,20.77
2023-02-14T21:18:59.804Z,19.48
2023-02-14T21:21:32.601Z,20.02
2023-02-14T21:24:02.285Z,19.95
2023-02-14T21:26:30.939Z,20.58
2023-02-14T21:29:01.535Z,20.00
2023-02-14T21:31:30.132Z,19.48
2023-02-14T21:34:00.301Z,20.17
2023-02-14T21:36:30.415Z,18.88
2023-02-14T21:39:00.034Z,19.48
2023-02-14T21:41:30.715Z,19.77
2023-02-14T21:44:01.682Z,21.05
2023-02-14T21:46:31.787Z,21.40
2023-02-14T21:49:18.764Z,22.70
2023-02-14T21:51:47.576Z,21.23
2023-02-14T21:54:16.130Z,22.10
2023-02-14T21:56:44.853Z,20.05
2023-02-14T21:59:14.649Z,20.42
2023-02-14T22:01:43.643Z,22.48
2023-02-14T22:04:13.332Z,22.15
2023-02-14T22:06:43.081Z,21.08
2023-02-14T22:09:13.004Z,21.63
2023-02-14T22:11:42.002Z,22.65
2023-02-14T22:14:10.209Z,23.65
2023-02-14T22:16:39.896Z,22.63
2023-02-14T22:19:11.866Z,23.17
2023-02-14T22:21:40.204Z,21.67
2023-02-14T22:24:08.937Z,22.65
2023-02-14T22:26:40.748Z,22.10
2023-02-14T22:29:10.958Z,22.92
2023-02-14T22:31:42.719Z,22.38
2023-02-14T22:34:12.952Z,23.67
2023-02-14T22:36:41.771Z,22.77
2023-02-14T22:39:11.370Z,21.30
2023-02-14T22:41:39.680Z,22.13
2023-02-14T22:44:08.081Z,22.48
2023-02-14T22:46:37.714Z,22.17
2023-02-14T22:49:08.156Z,23.02
2023-02-14T22:51:37.635Z,22.33
2023-02-14T22:54:08.005Z,22.90
2023-02-14T22:56:39.381Z,20.73
2023-02-14T22:59:10.049Z,24.02
2023-02-14T23:01:38.309Z,22.25
2023-02-14T23:04:08.451Z,23.00
2023-02-14T23:06:37.880Z,21.92
2023-02-14T23:09:09.053Z,23.80
2023-02-14T23:11:39.744Z,23.10
2023-02-14T23:14:25.824Z,22.02
2023-02-14T23:17:20.279Z,23.08
2023-02-14T23:20:07.644Z,22.73
2023-02-14T23:22:38.160Z,24.52
2023-02-14T23:25:08.617Z,23.92
2023-02-14T23:27:39.000Z,23.83
2023-02-14T23:30:09.443Z,23.77
2023-02-14T23:32:37.839Z,24.13
2023-02-14T23:35:08.275Z,25.15
2023-02-14T23:37:36.620Z,24.73
2023-02-14T23:40:05.895Z,23.25
2023-02-14T23:42:34.262Z,24.63
2023-02-14T23:45:16.402Z,21.98
2023-02-14T23:47:44.710Z,22.08
2023-02-14T23:50:14.344Z,23.23
2023-02-14T23:52:44.384Z,23.35
2023-02-14T23:55:12.991Z,22.52
2023-02-14T23:57:41.651Z,21.88
